VIR297N TNCM-TLPL
Flight info
| Callsign | VIR297N |
|---|---|
| Flight time | 0h 56m |
| Altitude | 39000 |
| Route | MODOR2 ELOPO UB520 ANU UA312 FOF DCT BISNO |
| Aircraft | A333/H-SDE3GHIJ2J3J5M1RVWXY/LB2D1 |
Departure
| Time | 2026-04-26 00:30 |
|---|---|
| Airport | Princess Juliana International Airport (TNCM) |
Arrival
| Time | 2026-04-26 01:27 |
|---|---|
| Airport | Hewanorra International Airport (TLPL) |
| Time | Latitude | Longitude | Altitude | Speed | Heading |
|---|---|---|---|---|---|
| 2026-04-26 00:17 | 18.04314 | -63.11429 | 24 ft | 0 kts | 352° |
| 2026-04-26 00:20 | 18.04308 | -63.11429 | 18 ft | 2 kts | 333° |
| 2026-04-26 00:20 | 18.04297 | -63.11417 | 16 ft | 3 kts | 334° |
| 2026-04-26 00:20 | 18.04281 | -63.11418 | 14 ft | 2 kts | 358° |
| 2026-04-26 00:21 | 18.04271 | -63.11417 | 34 ft | 2 kts | 6° |
| 2026-04-26 00:21 | 18.04255 | -63.11418 | 29 ft | 3 kts | 27° |
| 2026-04-26 00:21 | 18.04241 | -63.11429 | 29 ft | 3 kts | 42° |
| 2026-04-26 00:21 | 18.04233 | -63.11448 | 29 ft | 2 kts | 102° |
| 2026-04-26 00:24 | 18.04232 | -63.11438 | 28 ft | 3 kts | 94° |
| 2026-04-26 00:24 | 18.04232 | -63.11411 | 27 ft | 2 kts | 83° |
| 2026-04-26 00:24 | 18.04235 | -63.11389 | 27 ft | 4 kts | 81° |
| 2026-04-26 00:25 | 18.04219 | -63.11319 | 29 ft | 10 kts | 134° |
| 2026-04-26 00:25 | 18.04174 | -63.11301 | 27 ft | 11 kts | 162° |
| 2026-04-26 00:25 | 18.04110 | -63.11292 | 26 ft | 10 kts | 172° |
| 2026-04-26 00:25 | 18.04052 | -63.11288 | 26 ft | 6 kts | 191° |
| 2026-04-26 00:26 | 18.04041 | -63.11306 | 27 ft | 5 kts | 241° |
| 2026-04-26 00:26 | 18.04031 | -63.11335 | 26 ft | 6 kts | 249° |
| 2026-04-26 00:26 | 18.04020 | -63.11395 | 25 ft | 24 kts | 261° |
| 2026-04-26 00:26 | 18.03985 | -63.11641 | 26 ft | 37 kts | 261° |
| 2026-04-26 00:27 | 18.03974 | -63.11870 | 25 ft | 20 kts | 283° |
| 2026-04-26 00:27 | 18.03990 | -63.11946 | 24 ft | 1 kts | 263° |
| 2026-04-26 00:27 | 18.03986 | -63.11952 | 26 ft | 1 kts | 245° |
| 2026-04-26 00:27 | 18.03980 | -63.11957 | 29 ft | 1 kts | 223° |
| 2026-04-26 00:28 | 18.03968 | -63.11964 | 27 ft | 1 kts | 206° |
| 2026-04-26 00:28 | 18.03964 | -63.11963 | 27 ft | 0 kts | 185° |
| 2026-04-26 00:28 | 18.03961 | -63.11961 | 27 ft | 0 kts | 166° |
| 2026-04-26 00:28 | 18.03954 | -63.11955 | 27 ft | 3 kts | 148° |
| 2026-04-26 00:29 | 18.03946 | -63.11941 | 29 ft | 1 kts | 112° |
| 2026-04-26 00:29 | 18.03948 | -63.11927 | 30 ft | 3 kts | 86° |
| 2026-04-26 00:29 | 18.03960 | -63.11825 | 27 ft | 31 kts | 82° |
| 2026-04-26 00:29 | 18.04019 | -63.11406 | 25 ft | 92 kts | 81° |
| 2026-04-26 00:30 | 18.04154 | -63.10455 | 30 ft | 170 kts | 82° |
| 2026-04-26 00:30 | 18.04331 | -63.09107 | 581 ft | 204 kts | 87° |
| 2026-04-26 00:30 | 18.04137 | -63.07542 | 1585 ft | 211 kts | 98° |
| 2026-04-26 00:30 | 18.04171 | -63.05951 | 2464 ft | 233 kts | 84° |
| 2026-04-26 00:31 | 18.04405 | -63.04199 | 3079 ft | 256 kts | 89° |
| 2026-04-26 00:31 | 18.03932 | -63.02437 | 3886 ft | 262 kts | 124° |
| 2026-04-26 00:31 | 18.02513 | -63.01253 | 4835 ft | 262 kts | 162° |
| 2026-04-26 00:31 | 18.00833 | -63.01095 | 5302 ft | 248 kts | 190° |
| 2026-04-26 00:32 | 17.99337 | -63.01820 | 5071 ft | 246 kts | 221° |
| 2026-04-26 00:32 | 17.98217 | -63.03142 | 4816 ft | 247 kts | 231° |
| 2026-04-26 00:32 | 17.95497 | -63.05818 | 5769 ft | 266 kts | 212° |
| 2026-04-26 00:33 | 17.93942 | -63.06773 | 5761 ft | 257 kts | 208° |
| 2026-04-26 00:33 | 17.92312 | -63.07554 | 5477 ft | 258 kts | 200° |
| 2026-04-26 00:33 | 17.90504 | -63.07997 | 5207 ft | 285 kts | 185° |
| 2026-04-26 00:33 | 17.88537 | -63.07629 | 6179 ft | 289 kts | 159° |
| 2026-04-26 00:34 | 17.86917 | -63.06452 | 7402 ft | 283 kts | 134° |
| 2026-04-26 00:34 | 17.85874 | -63.04718 | 8229 ft | 293 kts | 115° |
| 2026-04-26 00:34 | 17.85121 | -63.02690 | 8977 ft | 301 kts | 112° |
| 2026-04-26 00:34 | 17.84284 | -63.00674 | 9894 ft | 304 kts | 116° |
| 2026-04-26 00:35 | 17.83355 | -62.98648 | 10627 ft | 310 kts | 116° |
| 2026-04-26 00:35 | 17.82495 | -62.96566 | 11416 ft | 314 kts | 114° |
| 2026-04-26 00:35 | 17.81927 | -62.95120 | 11963 ft | 316 kts | 115° |
| 2026-04-26 00:35 | 17.80664 | -62.92174 | 11933 ft | 361 kts | 117° |
| 2026-04-26 00:36 | 17.79575 | -62.89729 | 11918 ft | 369 kts | 116° |
| 2026-04-26 00:36 | 17.78568 | -62.87285 | 12118 ft | 366 kts | 114° |
| 2026-04-26 00:36 | 17.77554 | -62.84821 | 12324 ft | 364 kts | 116° |
| 2026-04-26 00:36 | 17.76858 | -62.83219 | 12513 ft | 364 kts | 116° |
| 2026-04-26 00:37 | 17.75794 | -62.80795 | 12818 ft | 368 kts | 116° |
| 2026-04-26 00:37 | 17.74733 | -62.78272 | 13177 ft | 387 kts | 115° |
| 2026-04-26 00:37 | 17.73632 | -62.75636 | 13508 ft | 397 kts | 116° |
| 2026-04-26 00:37 | 17.72100 | -62.72086 | 13915 ft | 408 kts | 116° |
| 2026-04-26 00:38 | 17.70937 | -62.69364 | 14208 ft | 411 kts | 116° |
| 2026-04-26 00:38 | 17.70175 | -62.67550 | 14379 ft | 415 kts | 115° |
| 2026-04-26 00:38 | 17.68995 | -62.64769 | 14675 ft | 422 kts | 116° |
| 2026-04-26 00:38 | 17.67768 | -62.61923 | 14964 ft | 426 kts | 116° |
| 2026-04-26 00:39 | 17.66544 | -62.59055 | 15240 ft | 429 kts | 116° |
| 2026-04-26 00:39 | 17.65328 | -62.56204 | 15512 ft | 431 kts | 117° |
| 2026-04-26 00:39 | 17.63770 | -62.53517 | 15792 ft | 431 kts | 128° |
| 2026-04-26 00:39 | 17.61952 | -62.51018 | 16053 ft | 432 kts | 130° |
| 2026-04-26 00:40 | 17.60134 | -62.48496 | 16325 ft | 435 kts | 128° |
| 2026-04-26 00:40 | 17.58409 | -62.45899 | 16618 ft | 436 kts | 127° |
| 2026-04-26 00:40 | 17.56658 | -62.43295 | 17182 ft | 439 kts | 128° |
| 2026-04-26 00:40 | 17.54837 | -62.40756 | 18144 ft | 436 kts | 129° |
| 2026-04-26 00:41 | 17.53033 | -62.38199 | 19086 ft | 435 kts | 128° |
| 2026-04-26 00:41 | 17.51333 | -62.35674 | 20001 ft | 434 kts | 128° |
| 2026-04-26 00:41 | 17.49581 | -62.33112 | 20991 ft | 430 kts | 129° |
| 2026-04-26 00:41 | 17.47776 | -62.30568 | 22018 ft | 426 kts | 130° |
| 2026-04-26 00:42 | 17.46049 | -62.28102 | 22910 ft | 427 kts | 129° |
| 2026-04-26 00:42 | 17.44321 | -62.25567 | 23652 ft | 430 kts | 129° |
| 2026-04-26 00:42 | 17.42561 | -62.23020 | 24239 ft | 433 kts | 130° |
| 2026-04-26 00:42 | 17.40775 | -62.20486 | 24843 ft | 435 kts | 130° |
| 2026-04-26 00:43 | 17.38984 | -62.17912 | 25504 ft | 436 kts | 130° |
| 2026-04-26 00:43 | 17.37214 | -62.15333 | 26173 ft | 437 kts | 130° |
| 2026-04-26 00:43 | 17.35419 | -62.12755 | 26754 ft | 440 kts | 131° |
| 2026-04-26 00:43 | 17.33650 | -62.10240 | 27319 ft | 442 kts | 131° |
| 2026-04-26 00:44 | 17.31787 | -62.07554 | 27949 ft | 444 kts | 130° |
| 2026-04-26 00:44 | 17.29975 | -62.04929 | 28565 ft | 446 kts | 131° |
| 2026-04-26 00:44 | 17.28171 | -62.02349 | 29188 ft | 446 kts | 131° |
| 2026-04-26 00:44 | 17.26339 | -61.99737 | 29827 ft | 447 kts | 131° |
| 2026-04-26 00:45 | 17.24501 | -61.97087 | 30371 ft | 449 kts | 131° |
| 2026-04-26 00:45 | 17.22664 | -61.94442 | 30800 ft | 452 kts | 131° |
| 2026-04-26 00:45 | 17.20792 | -61.91775 | 31199 ft | 457 kts | 131° |
| 2026-04-26 00:45 | 17.18906 | -61.89077 | 31588 ft | 461 kts | 131° |
| 2026-04-26 00:46 | 17.17011 | -61.86346 | 31978 ft | 466 kts | 131° |
| 2026-04-26 00:46 | 17.15093 | -61.83604 | 32368 ft | 469 kts | 132° |
| 2026-04-26 00:46 | 17.12892 | -61.81172 | 32743 ft | 459 kts | 148° |
| 2026-04-26 00:46 | 17.10204 | -61.79443 | 33152 ft | 450 kts | 161° |
| 2026-04-26 00:47 | 17.07295 | -61.78397 | 33547 ft | 445 kts | 170° |
| 2026-04-26 00:47 | 17.04304 | -61.77520 | 33958 ft | 448 kts | 169° |
| 2026-04-26 00:47 | 17.01309 | -61.76587 | 34309 ft | 452 kts | 169° |
| 2026-04-26 00:47 | 16.98277 | -61.75653 | 34654 ft | 454 kts | 170° |
| 2026-04-26 00:48 | 16.95231 | -61.74762 | 35007 ft | 456 kts | 170° |
| 2026-04-26 00:48 | 16.92163 | -61.73845 | 35349 ft | 459 kts | 169° |
| 2026-04-26 00:48 | 16.89093 | -61.72888 | 35711 ft | 461 kts | 169° |
| 2026-04-26 00:48 | 16.86012 | -61.71947 | 36050 ft | 462 kts | 170° |
| 2026-04-26 00:49 | 16.82927 | -61.71036 | 36408 ft | 462 kts | 170° |
| 2026-04-26 00:49 | 16.79835 | -61.70105 | 36772 ft | 463 kts | 169° |
| 2026-04-26 00:49 | 16.76758 | -61.69155 | 37139 ft | 463 kts | 169° |
| 2026-04-26 00:49 | 16.73703 | -61.68230 | 37518 ft | 462 kts | 170° |
| 2026-04-26 00:50 | 16.70571 | -61.67300 | 37913 ft | 461 kts | 170° |
| 2026-04-26 00:50 | 16.67552 | -61.66386 | 38302 ft | 460 kts | 169° |
| 2026-04-26 00:50 | 16.64463 | -61.65439 | 38695 ft | 459 kts | 170° |
| 2026-04-26 00:50 | 16.61414 | -61.64522 | 38936 ft | 460 kts | 170° |
| 2026-04-26 00:51 | 16.58278 | -61.63594 | 38634 ft | 474 kts | 170° |
| 2026-04-26 00:51 | 16.55104 | -61.62634 | 38197 ft | 478 kts | 169° |
| 2026-04-26 00:51 | 16.51936 | -61.61658 | 37923 ft | 477 kts | 169° |
| 2026-04-26 00:51 | 16.48731 | -61.60694 | 37372 ft | 476 kts | 169° |
| 2026-04-26 00:52 | 16.45603 | -61.59763 | 37870 ft | 458 kts | 169° |
| 2026-04-26 00:52 | 16.42560 | -61.58841 | 38309 ft | 457 kts | 169° |
| 2026-04-26 00:52 | 16.39476 | -61.57911 | 38488 ft | 461 kts | 170° |
| 2026-04-26 00:52 | 16.36406 | -61.56995 | 38505 ft | 468 kts | 169° |
| 2026-04-26 00:53 | 16.30087 | -61.55084 | 38492 ft | 476 kts | 169° |
| 2026-04-26 00:53 | 16.23734 | -61.53172 | 38481 ft | 477 kts | 169° |
| 2026-04-26 00:54 | 16.17365 | -61.51143 | 38476 ft | 477 kts | 168° |
| 2026-04-26 00:54 | 16.10997 | -61.49199 | 38435 ft | 477 kts | 169° |
| 2026-04-26 00:55 | 16.04634 | -61.47188 | 38434 ft | 477 kts | 168° |
| 2026-04-26 00:55 | 15.98269 | -61.45237 | 38418 ft | 477 kts | 168° |
| 2026-04-26 00:56 | 15.91954 | -61.43252 | 38401 ft | 477 kts | 168° |
| 2026-04-26 00:56 | 15.85601 | -61.41300 | 38372 ft | 477 kts | 168° |
| 2026-04-26 00:57 | 15.79239 | -61.39310 | 38348 ft | 477 kts | 168° |
| 2026-04-26 00:57 | 15.72875 | -61.37352 | 38315 ft | 477 kts | 168° |
| 2026-04-26 00:58 | 15.66544 | -61.35379 | 38291 ft | 477 kts | 168° |
| 2026-04-26 00:58 | 15.60176 | -61.33416 | 38285 ft | 477 kts | 168° |
| 2026-04-26 00:59 | 15.53829 | -61.31447 | 38266 ft | 477 kts | 168° |
| 2026-04-26 00:59 | 15.47467 | -61.29484 | 38255 ft | 478 kts | 168° |
| 2026-04-26 01:00 | 15.41084 | -61.27508 | 38225 ft | 478 kts | 168° |
| 2026-04-26 01:00 | 15.34753 | -61.25555 | 38213 ft | 478 kts | 167° |
| 2026-04-26 01:01 | 15.28383 | -61.23591 | 38162 ft | 478 kts | 168° |
| 2026-04-26 01:01 | 15.21992 | -61.21616 | 38134 ft | 479 kts | 167° |
| 2026-04-26 01:02 | 15.15613 | -61.19655 | 38134 ft | 478 kts | 167° |
| 2026-04-26 01:02 | 15.09285 | -61.17700 | 38106 ft | 478 kts | 167° |
| 2026-04-26 01:03 | 15.02924 | -61.15748 | 38073 ft | 477 kts | 167° |
| 2026-04-26 01:03 | 14.96559 | -61.13786 | 38062 ft | 476 kts | 167° |
| 2026-04-26 01:04 | 14.90208 | -61.11835 | 38048 ft | 477 kts | 167° |
| 2026-04-26 01:04 | 14.87022 | -61.10854 | 37756 ft | 479 kts | 167° |
| 2026-04-26 01:04 | 14.83837 | -61.09879 | 37300 ft | 478 kts | 167° |
| 2026-04-26 01:05 | 14.80660 | -61.08901 | 36779 ft | 469 kts | 167° |
| 2026-04-26 01:05 | 14.77552 | -61.07944 | 35907 ft | 468 kts | 167° |
| 2026-04-26 01:05 | 14.74463 | -61.06998 | 34714 ft | 454 kts | 166° |
| 2026-04-26 01:05 | 14.71506 | -61.06091 | 33823 ft | 437 kts | 166° |
| 2026-04-26 01:06 | 14.68621 | -61.05203 | 32665 ft | 428 kts | 166° |
| 2026-04-26 01:06 | 14.65813 | -61.04345 | 31568 ft | 418 kts | 166° |
| 2026-04-26 01:06 | 14.63095 | -61.03515 | 30525 ft | 409 kts | 166° |
| 2026-04-26 01:06 | 14.60408 | -61.02704 | 29370 ft | 397 kts | 169° |
| 2026-04-26 01:07 | 14.57736 | -61.02444 | 28223 ft | 382 kts | 188° |
| 2026-04-26 01:07 | 14.55128 | -61.02850 | 26920 ft | 376 kts | 191° |
| 2026-04-26 01:07 | 14.52532 | -61.03216 | 25668 ft | 376 kts | 186° |
| 2026-04-26 01:07 | 14.49972 | -61.03438 | 24526 ft | 375 kts | 187° |
| 2026-04-26 01:08 | 14.47865 | -61.03695 | 23806 ft | 365 kts | 190° |
| 2026-04-26 01:08 | 14.45515 | -61.04108 | 23218 ft | 320 kts | 191° |
| 2026-04-26 01:08 | 14.43198 | -61.04456 | 21592 ft | 349 kts | 187° |
| 2026-04-26 01:08 | 14.40908 | -61.04682 | 21095 ft | 300 kts | 186° |
| 2026-04-26 01:09 | 14.38736 | -61.04941 | 19465 ft | 333 kts | 189° |
| 2026-04-26 01:09 | 14.36382 | -61.05322 | 17855 ft | 348 kts | 189° |
| 2026-04-26 01:09 | 14.33973 | -61.05654 | 16577 ft | 348 kts | 187° |
| 2026-04-26 01:09 | 14.31587 | -61.05920 | 15484 ft | 342 kts | 187° |
| 2026-04-26 01:10 | 14.29250 | -61.06229 | 14441 ft | 335 kts | 189° |
| 2026-04-26 01:10 | 14.26970 | -61.06575 | 13366 ft | 329 kts | 189° |
| 2026-04-26 01:10 | 14.24713 | -61.06875 | 12257 ft | 323 kts | 188° |
| 2026-04-26 01:10 | 14.22535 | -61.07159 | 11244 ft | 316 kts | 188° |
| 2026-04-26 01:11 | 14.20381 | -61.07457 | 10270 ft | 307 kts | 188° |
| 2026-04-26 01:11 | 14.18281 | -61.07739 | 9269 ft | 300 kts | 187° |
| 2026-04-26 01:11 | 14.16243 | -61.08000 | 8263 ft | 293 kts | 187° |
| 2026-04-26 01:11 | 14.14240 | -61.08266 | 7324 ft | 285 kts | 187° |
| 2026-04-26 01:12 | 14.12325 | -61.08525 | 6636 ft | 271 kts | 186° |
| 2026-04-26 01:12 | 14.10505 | -61.08763 | 5886 ft | 265 kts | 186° |
| 2026-04-26 01:12 | 14.08711 | -61.08999 | 5190 ft | 251 kts | 185° |
| 2026-04-26 01:12 | 14.07064 | -61.09219 | 4817 ft | 230 kts | 185° |
| 2026-04-26 01:13 | 14.05490 | -61.09430 | 4477 ft | 221 kts | 184° |
| 2026-04-26 01:13 | 14.03989 | -61.09625 | 4418 ft | 218 kts | 184° |
| 2026-04-26 01:13 | 14.02491 | -61.09818 | 4452 ft | 220 kts | 185° |
| 2026-04-26 01:13 | 14.00988 | -61.10019 | 4347 ft | 215 kts | 185° |
| 2026-04-26 01:14 | 13.99519 | -61.10218 | 4241 ft | 214 kts | 185° |
| 2026-04-26 01:14 | 13.98032 | -61.10410 | 4177 ft | 213 kts | 185° |
| 2026-04-26 01:14 | 13.96581 | -61.10599 | 4089 ft | 214 kts | 185° |
| 2026-04-26 01:14 | 13.95091 | -61.10803 | 4002 ft | 212 kts | 185° |
| 2026-04-26 01:15 | 13.93625 | -61.10993 | 3858 ft | 213 kts | 185° |
| 2026-04-26 01:15 | 13.92263 | -61.11172 | 3871 ft | 211 kts | 184° |
| 2026-04-26 01:15 | 13.90756 | -61.11370 | 3627 ft | 217 kts | 185° |
| 2026-04-26 01:15 | 13.89294 | -61.11566 | 3201 ft | 214 kts | 184° |
| 2026-04-26 01:16 | 13.87822 | -61.11761 | 2774 ft | 212 kts | 184° |
| 2026-04-26 01:16 | 13.86360 | -61.11956 | 2346 ft | 210 kts | 184° |
| 2026-04-26 01:16 | 13.84918 | -61.12140 | 1875 ft | 210 kts | 183° |
| 2026-04-26 01:16 | 13.83480 | -61.12302 | 1631 ft | 201 kts | 186° |
| 2026-04-26 01:17 | 13.82110 | -61.12520 | 1834 ft | 208 kts | 184° |
| 2026-04-26 01:17 | 13.80673 | -61.12723 | 1565 ft | 207 kts | 183° |
| 2026-04-26 01:17 | 13.79296 | -61.12880 | 1670 ft | 211 kts | 184° |
| 2026-04-26 01:17 | 13.77857 | -61.13106 | 1667 ft | 198 kts | 186° |
| 2026-04-26 01:18 | 13.76521 | -61.13276 | 1671 ft | 196 kts | 181° |
| 2026-04-26 01:18 | 13.75199 | -61.13342 | 1666 ft | 182 kts | 173° |
| 2026-04-26 01:18 | 13.74066 | -61.12847 | 1660 ft | 181 kts | 131° |
| 2026-04-26 01:18 | 13.73453 | -61.11763 | 1745 ft | 179 kts | 110° |
| 2026-04-26 01:19 | 13.73317 | -61.10508 | 1659 ft | 175 kts | 88° |
| 2026-04-26 01:19 | 13.73378 | -61.09252 | 1687 ft | 174 kts | 89° |
| 2026-04-26 01:19 | 13.73349 | -61.08056 | 1665 ft | 163 kts | 94° |
| 2026-04-26 01:19 | 13.73312 | -61.06888 | 1652 ft | 162 kts | 92° |
| 2026-04-26 01:20 | 13.73325 | -61.05749 | 1651 ft | 158 kts | 90° |
| 2026-04-26 01:20 | 13.73330 | -61.04629 | 1626 ft | 155 kts | 94° |
| 2026-04-26 01:20 | 13.73332 | -61.03541 | 1606 ft | 151 kts | 92° |
| 2026-04-26 01:20 | 13.73342 | -61.02485 | 1316 ft | 147 kts | 90° |
| 2026-04-26 01:21 | 13.73381 | -61.01429 | 973 ft | 143 kts | 90° |
| 2026-04-26 01:21 | 13.73335 | -61.00552 | 620 ft | 141 kts | 100° |
| 2026-04-26 01:21 | 13.73271 | -60.99714 | 604 ft | 133 kts | 102° |
| 2026-04-26 01:21 | 13.73254 | -60.98719 | 641 ft | 142 kts | 85° |
| 2026-04-26 01:22 | 13.73362 | -60.97720 | 485 ft | 140 kts | 91° |
| 2026-04-26 01:22 | 13.73340 | -60.96734 | 144 ft | 140 kts | 91° |
| 2026-04-26 01:22 | 13.73337 | -60.95784 | 61 ft | 132 kts | 97° |
| 2026-04-26 01:22 | 13.73353 | -60.94807 | 91 ft | 131 kts | 81° |
| 2026-04-26 01:23 | 13.73527 | -60.93913 | 773 ft | 138 kts | 86° |
| 2026-04-26 01:23 | 13.73555 | -60.92793 | 1104 ft | 177 kts | 95° |
| 2026-04-26 01:23 | 13.73716 | -60.91506 | 1755 ft | 186 kts | 71° |
| 2026-04-26 01:23 | 13.74447 | -60.90624 | 2078 ft | 151 kts | 51° |
| 2026-04-26 01:24 | 13.75068 | -60.89768 | 1879 ft | 157 kts | 44° |
| 2026-04-26 01:24 | 13.75629 | -60.88898 | 1793 ft | 148 kts | 91° |
| 2026-04-26 01:24 | 13.75124 | -60.87937 | 1865 ft | 179 kts | 141° |
| 2026-04-26 01:24 | 13.73822 | -60.87602 | 2186 ft | 208 kts | 179° |
| 2026-04-26 01:25 | 13.72861 | -60.88468 | 1837 ft | 186 kts | 261° |
| 2026-04-26 01:25 | 13.73151 | -60.89703 | 1359 ft | 179 kts | 289° |
| 2026-04-26 01:25 | 13.73277 | -60.90964 | 703 ft | 177 kts | 268° |
| 2026-04-26 01:25 | 13.73307 | -60.92177 | 537 ft | 165 kts | 270° |
| 2026-04-26 01:26 | 13.73328 | -60.93385 | 330 ft | 169 kts | 270° |
| 2026-04-26 01:26 | 13.73378 | -60.94570 | 109 ft | 159 kts | 270° |
| 2026-04-26 01:26 | 13.73028 | -60.97036 | 713 ft | 1832 kts | 350° |
| 2026-04-26 01:26 | 13.73247 | -60.98893 | 634 ft | 139 kts | 83° |
| 2026-04-26 01:27 | 13.73351 | -60.97943 | 417 ft | 138 kts | 91° |
| 2026-04-26 01:27 | 13.73334 | -60.97264 | 171 ft | 0 kts | 83° |
| 2026-04-26 01:27 | 13.73970 | -60.99036 | 677 ft | 1715 kts | 18° |
| 2026-04-26 01:27 | 13.73267 | -61.00713 | 851 ft | 0 kts | 90° |
| 2026-04-26 01:28 | 13.73421 | -61.00306 | 670 ft | 128 kts | 90° |
| 2026-04-26 01:28 | 13.73339 | -60.99477 | 449 ft | 122 kts | 97° |
| 2026-04-26 01:28 | 13.73431 | -60.98589 | 397 ft | 129 kts | 90° |
| 2026-04-26 01:28 | 13.73398 | -60.97644 | 310 ft | 134 kts | 95° |
| 2026-04-26 01:29 | 13.73344 | -60.96685 | 117 ft | 135 kts | 97° |
| 2026-04-26 01:29 | 13.73345 | -60.95727 | 46 ft | 131 kts | 88° |
| 2026-04-26 01:29 | 13.73342 | -60.94923 | 21 ft | 81 kts | 93° |
| 2026-04-26 01:29 | 13.73338 | -60.94688 | 23 ft | 11 kts | 90° |
| 2026-04-26 01:30 | 13.73339 | -60.94589 | 25 ft | 3 kts | 84° |
| 2026-04-26 01:30 | 13.73343 | -60.94577 | 25 ft | 5 kts | 72° |
| 2026-04-26 01:30 | 13.73357 | -60.94556 | 25 ft | 4 kts | 54° |
| 2026-04-26 01:30 | 13.73363 | -60.94555 | 24 ft | 1 kts | 29° |
| 2026-04-26 01:31 | 13.73385 | -60.94556 | 26 ft | 11 kts | 1° |
| 2026-04-26 01:31 | 13.73423 | -60.94571 | 26 ft | 0 kts | 331° |
| 2026-04-26 01:32 | 13.73440 | -60.94580 | 16 ft | 6 kts | 331° |
| 2026-04-26 01:32 | 13.73487 | -60.94609 | 25 ft | 11 kts | 327° |
| 2026-04-26 01:32 | 13.73555 | -60.94669 | 26 ft | 13 kts | 312° |
| 2026-04-26 01:33 | 13.73563 | -60.94730 | 22 ft | 10 kts | 270° |
| 2026-04-26 01:33 | 13.73562 | -60.94766 | 22 ft | 0 kts | 275° |
| 2026-04-26 01:33 | 13.73564 | -60.94768 | 22 ft | 1 kts | 293° |
| 2026-04-26 01:33 | 13.73582 | -60.94787 | 28 ft | 7 kts | 315° |
| 2026-04-26 01:34 | 13.73600 | -60.94786 | 27 ft | 6 kts | 1° |
| 2026-04-26 01:34 | 13.73658 | -60.94790 | 27 ft | 0 kts | 356° |